Flight Track Log - Related Links

Times and Time Zones

All times are in EDT time to prevent confusion due to time zone crossing. See the N328SR flight status page for this flight to view local times or setup timezone preferences in your user account.

Time Position Orientation Groundspeed Altitude Reporting Facility
EDT Latitude Longitude Course Direction KTS MPH feet Rate Location/Type
Sun 12:11:42 PM 41.3433 -72.0917 North 198 228 900  Level Boston Center
Sun 12:13:26 PM 41.4225 -72.0858 North 157 181 2,500 714 Climbing Boston Center
Sun 12:14:30 PM 41.4619 -72.0550 30° Northeast 168 193 2,900 194 Climbing Boston Center
Sun 12:15:30 PM 41.5139 -72.0214 26° Northeast 178 205 2,900 100 Level Boston Center
Sun 12:16:30 PM 41.5617 -72.0017 17° North 189 217 3,100 500 Climbing Boston Center
Sun 12:17:30 PM 41.6078 -72.0236 340° North 165 190 3,900 750 Climbing Boston Center
Sun 12:18:30 PM 41.6431 -72.0372 344° North 151 174 4,600 800 Climbing Boston Center
Sun 12:19:30 PM 41.6869 -72.0536 344° North 146 168 5,500 700 Climbing Boston Center
Sun 12:20:30 PM 41.7225 -72.0675 344° North 146 168 6,000 682 Climbing Boston Center
Sun 12:21:42 PM 41.7664 -72.0839 344° North 146 168 7,000 864 Climbing Boston Center
Sun 12:22:42 PM 41.8142 -72.1031 343° North 146 168 7,900 800 Climbing Boston Center
Sun 12:23:42 PM 41.8539 -72.1225 340° North 146 168 8,600 750 Climbing Boston Center
Sun 12:24:42 PM 41.8956 -72.1361 346° North 146 168 9,400 650 Climbing Boston Center
Sun 12:25:42 PM 41.9375 -72.1528 344° North 146 168 9,900 500 Climbing Boston Center
Sun 12:26:42 PM 41.9811 -72.1664 347° North 146 168 10,400 550 Climbing Boston Center
Sun 12:27:42 PM 42.0250 -72.1831 344° North 152 175 11,000 650 Climbing Boston Center
Sun 12:28:42 PM 42.0708 -72.2025 343° North 162 186 11,700 450 Climbing Boston Center
Sun 12:29:42 PM 42.1167 -72.2189 345° North 162 186 11,900  Climbing Boston Center
Sun 12:30:42 PM 42.1647 -72.2411 341° North 167 192 11,700 -50 Descending Boston Center
Sun 12:31:42 PM 42.2147 -72.2636 342° North 177 204 11,800 150 Climbing Boston Center
Sun 12:32:42 PM 42.2647 -72.2803 346° North 183 211 12,000 50 Climbing Boston Center
Sun 12:33:42 PM 42.3169 -72.2969 347° North 188 216 11,900 -50 Descending Boston Center
Sun 12:34:42 PM 42.3628 -72.3136 345° North 188 216 11,900  Level Boston Center
Sun 12:35:42 PM 42.4067 -72.3306 344° North 188 216 11,900  Level Boston Center
Sun 12:36:42 PM 42.4692 -72.3556 344° North 188 216 11,900  Level Boston Center
Sun 12:37:42 PM 42.5192 -72.3753 344° North 188 216 11,900  Level Boston Center
Sun 12:38:42 PM 42.5714 -72.3950 344° North 188 216 11,900  Level Boston Center
Sun 12:39:42 PM 42.6233 -72.4147 344° North 188 216 11,900  Level Boston Center
Sun 12:40:54 PM 42.6756 -72.4344 344° North 188 216 11,900  Level Boston Center
Sun 12:41:54 PM 42.7381 -72.4569 345° North 188 216 11,900  Level Boston Center
Sun 12:42:54 PM 42.7881 -72.4797 342° North 183 211 11,900  Level Boston Center
Sun 12:43:54 PM 42.8400 -72.4994 344° North 183 211 11,900 -50 Level Boston Center
Sun 12:44:54 PM 42.8922 -72.5194 344° North 183 211 11,800 -45 Descending Boston Center
Sun 12:46:06 PM 42.9444 -72.5364 347° North 183 211 11,800  Level Boston Center
Sun 12:47:06 PM 43.0047 -72.5650 341° North 183 211 11,800  Level Boston Center
Sun 12:48:06 PM 43.0589 -72.5850 345° North 183 211 11,800  Level Boston Center
Sun 12:49:06 PM 43.1108 -72.6050 344° North 183 211 11,800  Level Boston Center
Sun 12:50:06 PM 43.1631 -72.6250 344° North 183 211 11,800  Level Boston Center
Sun 12:51:06 PM 43.2172 -72.6481 343° North 183 211 11,800  Level Boston Center
Sun 12:52:06 PM 43.2692 -72.6681 344° North 183 211 11,800  Level Boston Center
Sun 12:53:06 PM 43.3108 -72.6856 343° North 183 211 11,800  Level Boston Center
Sun 12:54:06 PM 43.3753 -72.7114 344° North 183 211 11,800  Level Boston Center
Sun 12:55:06 PM 43.4275 -72.7289 346° North 183 211 11,800  Level Boston Center
Sun 12:56:06 PM 43.4775 -72.7492 344° North 183 211 11,800  Level Boston Center
Sun 12:57:07 PM 43.5294 -72.7694 344° North 183 211 11,800  Level Boston Center
Sun 12:58:06 PM 43.5814 -72.7897 344° North 183 211 11,800  Level Boston Center
Sun 12:59:06 PM 43.6314 -72.8131 341° North 183 211 11,800  Level Boston Center
Sun 01:00:06 PM 43.6753 -72.8306 344° North 183 211 11,800 -150 Level Boston Center
Sun 01:01:06 PM 43.7314 -72.8539 343° North 188 216 11,500 -350 Descending Boston Center
Sun 01:02:06 PM 43.7833 -72.8742 344° North 188 216 11,100 -397 Descending Boston Center
Sun 01:03:07 PM 43.8375 -72.8978 343° North 188 216 10,700 -500 Descending Boston Center
Sun 01:04:06 PM 43.8936 -72.9183 345° North 200 230 10,100 -756 Descending Boston Center
Sun 01:05:06 PM 43.9561 -72.9447 343° North 213 245 9,200 -800 Descending Boston Center
Sun 01:06:06 PM 44.0058 -72.9797 333° Northwest 207 238 8,500 -700 Descending Boston Center
Sun 01:07:06 PM 44.0556 -73.0178 331° Northwest 202 232 7,800 -650 Descending Boston Center
Sun 01:08:06 PM 44.1097 -73.0503 337° Northwest 202 232 7,200 -650 Descending Boston Center
Sun 01:09:06 PM 44.1594 -73.0825 335° Northwest 197 227 6,500 -650 Descending Boston Center
Sun 01:10:06 PM 44.2114 -73.1150 336° Northwest 197 227 5,900 -545 Descending Boston Center
Sun 01:11:07 PM 44.2614 -73.1444 337° Northwest 197 227 5,400 -500 Descending Boston Center
Sun 01:12:06 PM 44.3111 -73.1800 333° Northwest 197 227 4,900 -756 Descending Boston Center
Sun 01:13:06 PM 44.3608 -73.2067 339° North 197 227 3,900 -900 Descending Boston Center
Sun 01:14:06 PM 44.4044 -73.2217 346° North 197 227 3,100 -800 Descending Boston Center
Sun 01:16:00 PM 44.4667 -73.1500 340° North  Level FlightAware Approximate
Sun 01:23:00 PM 44.4719 -73.1533 340° North  Level Estimated

Login

Don't have an account? Register now (free) for customized features, flight alerts, and more!